createdAt,value
2023-03-25T00:02:08.911Z,99850.72
2023-03-25T00:04:56.166Z,99848.22
2023-03-25T00:07:43.217Z,99852.69
2023-03-25T00:10:29.282Z,99856.19
2023-03-25T00:13:15.381Z,99844.44
2023-03-25T00:16:01.688Z,99838.16
2023-03-25T00:18:48.012Z,99836.16
2023-03-25T00:21:35.831Z,99845.09
2023-03-25T00:24:21.560Z,99835.34
2023-03-25T00:27:07.323Z,99846.75
2023-03-25T00:29:53.729Z,99836.16
2023-03-25T00:32:39.784Z,99826.13
2023-03-25T00:35:25.929Z,99825.59
2023-03-25T00:38:13.266Z,99822.94
2023-03-25T00:40:58.942Z,99816.97
2023-03-25T00:43:45.389Z,99822.09
2023-03-25T00:46:32.194Z,99819.31
2023-03-25T00:49:18.055Z,99810.84
2023-03-25T00:52:04.338Z,99814.34
2023-03-25T00:54:52.665Z,99808.38
2023-03-25T00:57:40.071Z,99816.63
2023-03-25T01:00:26.489Z,99813.28
2023-03-25T01:03:13.496Z,99823.22
2023-03-25T01:05:59.332Z,99820.41
2023-03-25T01:08:45.236Z,99819.44
2023-03-25T01:11:34.874Z,99822.91
2023-03-25T01:14:21.253Z,99815.66
2023-03-25T01:17:07.244Z,99813.00
2023-03-25T01:19:52.905Z,99807.22
2023-03-25T01:22:38.660Z,99804.13
2023-03-25T01:25:24.417Z,99804.63
2023-03-25T01:28:11.623Z,99796.19
2023-03-25T01:31:00.952Z,99788.41
2023-03-25T01:33:47.134Z,99793.25
2023-03-25T01:36:33.446Z,99782.34
2023-03-25T01:39:19.704Z,99775.06
2023-03-25T01:42:06.105Z,99760.50
2023-03-25T01:45:17.605Z,99761.47
2023-03-25T01:48:06.088Z,99752.38
2023-03-25T01:50:53.114Z,99744.25
2023-03-25T01:53:38.958Z,99735.84
2023-03-25T01:56:25.289Z,99727.75
2023-03-25T01:59:11.920Z,99734.34
2023-03-25T02:02:01.571Z,99733.38
2023-03-25T02:04:51.515Z,99726.41
2023-03-25T02:07:37.734Z,99741.16
2023-03-25T02:10:23.736Z,99747.56
2023-03-25T02:13:09.521Z,99761.31
2023-03-25T02:15:59.533Z,99780.03
2023-03-25T02:18:49.142Z,99784.97
2023-03-25T02:21:52.881Z,99787.97
2023-03-25T02:24:55.014Z,99804.84
2023-03-25T02:27:48.534Z,99809.47
2023-03-25T02:30:53.216Z,99815.38
2023-03-25T02:33:50.686Z,99823.16
2023-03-25T02:36:52.358Z,99828.63
2023-03-25T02:39:40.473Z,99827.97
2023-03-25T02:42:26.895Z,99823.50
2023-03-25T02:45:13.784Z,99815.72
2023-03-25T02:48:00.735Z,99828.13
2023-03-25T02:50:47.783Z,99822.16
2023-03-25T02:53:34.246Z,99814.53
2023-03-25T02:56:22.800Z,99803.78
2023-03-25T02:59:09.093Z,99777.00
2023-03-25T03:01:58.388Z,99768.88
2023-03-25T03:04:51.584Z,99765.91
2023-03-25T03:07:37.652Z,99760.44
2023-03-25T03:10:24.065Z,99756.97
2023-03-25T03:13:13.703Z,99743.88
2023-03-25T03:16:00.920Z,99747.81
2023-03-25T03:18:50.274Z,99750.19
2023-03-25T03:21:38.130Z,99739.75
2023-03-25T03:24:25.517Z,99745.19
2023-03-25T03:27:12.933Z,99744.50
2023-03-25T03:30:01.822Z,99749.81
2023-03-25T03:32:49.785Z,99735.75
2023-03-25T03:35:38.337Z,99743.03
2023-03-25T03:38:25.754Z,99736.41
2023-03-25T03:41:12.109Z,99740.22
2023-03-25T03:43:58.714Z,99736.06
2023-03-25T03:46:47.133Z,99730.94
2023-03-25T03:49:34.796Z,99718.69
2023-03-25T03:52:21.491Z,99715.88
2023-03-25T03:55:10.769Z,99717.88
2023-03-25T03:57:57.936Z,99711.41
2023-03-25T04:00:44.330Z,99705.31
2023-03-25T04:03:34.824Z,99708.78
2023-03-25T04:06:24.322Z,99702.81
2023-03-25T04:09:12.383Z,99703.13
2023-03-25T04:11:59.813Z,99707.06
2023-03-25T04:14:45.783Z,99726.38
2023-03-25T04:17:32.942Z,99722.25
2023-03-25T04:20:23.648Z,99723.06
2023-03-25T04:23:10.240Z,99704.38
2023-03-25T04:25:55.931Z,99696.75
2023-03-25T04:28:44.427Z,99690.66
2023-03-25T04:31:31.010Z,99683.00
2023-03-25T04:34:17.004Z,99685.31
2023-03-25T04:37:04.130Z,99677.88
2023-03-25T04:39:50.293Z,99685.13
2023-03-25T04:42:37.324Z,99681.81
2023-03-25T04:45:25.223Z,99688.56
2023-03-25T04:48:14.929Z,99692.03
2023-03-25T04:51:01.774Z,99683.75
2023-03-25T04:53:48.679Z,99685.72
2023-03-25T04:56:34.578Z,99698.94
2023-03-25T04:59:21.027Z,99696.13
2023-03-25T05:02:07.046Z,99705.69
2023-03-25T05:04:54.102Z,99699.72
2023-03-25T05:07:40.111Z,99712.59
2023-03-25T05:10:29.404Z,99707.63
2023-03-25T05:13:15.380Z,99713.22
2023-03-25T05:16:01.368Z,99724.44
2023-03-25T05:18:47.285Z,99719.59
2023-03-25T05:21:33.121Z,99724.06
2023-03-25T05:24:19.345Z,99716.28
2023-03-25T05:27:06.346Z,99708.66
2023-03-25T05:29:52.283Z,99712.78
2023-03-25T05:32:41.064Z,99715.19
2023-03-25T05:35:27.454Z,99718.81
2023-03-25T05:38:18.106Z,99721.47
2023-03-25T05:41:04.566Z,99718.66
2023-03-25T05:43:51.807Z,99723.78
2023-03-25T05:46:37.665Z,99732.41
2023-03-25T05:49:23.925Z,99739.88
2023-03-25T05:52:11.707Z,99759.03
2023-03-25T05:54:57.832Z,99785.16
2023-03-25T05:57:43.755Z,99784.84
2023-03-25T06:00:30.971Z,99810.69
2023-03-25T06:03:18.318Z,99813.16
2023-03-25T06:06:05.393Z,99811.19
2023-03-25T06:08:51.592Z,99826.44
2023-03-25T06:11:38.989Z,99838.34
2023-03-25T06:14:25.551Z,99845.53
2023-03-25T06:17:13.001Z,99840.28
2023-03-25T06:20:00.380Z,99830.78
2023-03-25T06:22:46.490Z,99821.22
2023-03-25T06:25:32.441Z,99814.63
2023-03-25T06:28:19.222Z,99799.25
2023-03-25T06:31:08.887Z,99791.69
2023-03-25T06:33:56.915Z,99782.75
2023-03-25T06:36:42.901Z,99783.28
2023-03-25T06:39:31.113Z,99778.47
2023-03-25T06:42:18.957Z,99774.53
2023-03-25T06:45:24.506Z,99759.63
2023-03-25T06:48:36.507Z,99746.63
2023-03-25T06:51:23.842Z,99738.34
2023-03-25T06:54:09.914Z,99728.28
2023-03-25T06:56:55.725Z,99718.03
2023-03-25T06:59:41.833Z,99706.16
2023-03-25T07:02:27.605Z,99710.13
2023-03-25T07:05:13.432Z,99698.56
2023-03-25T07:08:01.052Z,99696.09
2023-03-25T07:10:47.043Z,99687.31
2023-03-25T07:13:32.876Z,99683.88
2023-03-25T07:16:18.699Z,99688.34
2023-03-25T07:19:04.492Z,99670.78
2023-03-25T07:21:51.052Z,99674.09
2023-03-25T07:24:38.035Z,99666.94
2023-03-25T07:27:23.763Z,99674.75
2023-03-25T07:30:18.924Z,99667.28
2023-03-25T07:33:05.257Z,99676.72
2023-03-25T07:35:51.370Z,99664.78
2023-03-25T07:38:37.730Z,99673.25
2023-03-25T07:41:24.926Z,99659.00
2023-03-25T07:44:23.678Z,99658.81
2023-03-25T07:47:09.477Z,99671.41
2023-03-25T07:49:55.269Z,99662.28
2023-03-25T07:52:41.018Z,99667.91
2023-03-25T07:55:27.278Z,99658.28
2023-03-25T07:58:14.377Z,99654.44
2023-03-25T08:01:00.192Z,99666.84
2023-03-25T08:03:46.149Z,99666.91
2023-03-25T08:06:32.308Z,99664.44
2023-03-25T08:09:18.093Z,99657.25
2023-03-25T08:12:04.034Z,99665.56
2023-03-25T08:14:50.993Z,99670.38
2023-03-25T08:17:36.903Z,99664.56
2023-03-25T08:20:23.274Z,99662.72
2023-03-25T08:23:10.670Z,99688.13
2023-03-25T08:25:56.876Z,99670.72
2023-03-25T08:28:42.725Z,99675.69
2023-03-25T08:31:30.971Z,99671.09
2023-03-25T08:34:17.282Z,99669.09
2023-03-25T08:37:03.183Z,99664.59
2023-03-25T08:39:50.275Z,99669.09
2023-03-25T08:42:36.229Z,99675.56
2023-03-25T08:45:22.310Z,99671.56
2023-03-25T08:48:09.388Z,99678.22
2023-03-25T08:50:55.128Z,99672.75
2023-03-25T08:53:40.876Z,99681.19
2023-03-25T08:56:27.049Z,99678.72
2023-03-25T08:59:13.503Z,99679.94
2023-03-25T09:02:01.458Z,99674.63
2023-03-25T09:04:50.265Z,99677.97
2023-03-25T09:07:36.259Z,99688.28
2023-03-25T09:10:22.247Z,99686.94
2023-03-25T09:13:08.137Z,99699.19
2023-03-25T09:15:54.405Z,99691.09
2023-03-25T09:18:40.439Z,99705.19
2023-03-25T09:21:27.489Z,99721.22
2023-03-25T09:24:13.793Z,99735.34
2023-03-25T09:26:59.886Z,99717.59
2023-03-25T09:29:45.827Z,99736.00
2023-03-25T09:32:31.911Z,99729.03
2023-03-25T09:35:17.895Z,99737.97
2023-03-25T09:38:05.699Z,99725.03
2023-03-25T09:40:51.933Z,99723.69
2023-03-25T09:43:38.967Z,99712.06
2023-03-25T09:46:25.164Z,99708.25
2023-03-25T09:49:11.736Z,99703.59
2023-03-25T09:51:57.748Z,99693.97
2023-03-25T09:54:45.848Z,99686.53
2023-03-25T09:57:32.331Z,99688.94
2023-03-25T10:00:18.527Z,99685.16
2023-03-25T10:03:08.799Z,99679.91
2023-03-25T10:05:58.404Z,99672.34
2023-03-25T10:08:47.019Z,99673.94
2023-03-25T10:11:36.648Z,99673.00
2023-03-25T10:14:22.648Z,99666.66
2023-03-25T10:17:11.522Z,99670.44
2023-03-25T10:20:01.963Z,99663.28
2023-03-25T10:22:52.145Z,99655.03
2023-03-25T10:25:39.003Z,99659.63
2023-03-25T10:28:28.417Z,99635.09
2023-03-25T10:31:15.401Z,99659.13
2023-03-25T10:34:05.570Z,99649.50
2023-03-25T10:36:54.932Z,99650.59
2023-03-25T10:39:45.172Z,99647.34
2023-03-25T10:42:33.245Z,99643.66
2023-03-25T10:45:20.509Z,99652.41
2023-03-25T10:48:08.083Z,99645.06
2023-03-25T10:50:54.640Z,99662.13
2023-03-25T10:53:41.322Z,99666.88
2023-03-25T10:56:29.156Z,99653.41
2023-03-25T10:59:18.709Z,99661.47
2023-03-25T11:02:11.566Z,99660.09
2023-03-25T11:04:57.861Z,99651.66
2023-03-25T11:07:44.869Z,99669.28
2023-03-25T11:10:32.267Z,99665.72
2023-03-25T11:13:22.103Z,99667.72
2023-03-25T11:16:08.418Z,99670.09
2023-03-25T11:18:55.972Z,99643.50
2023-03-25T11:21:44.706Z,99657.16
2023-03-25T11:24:31.462Z,99653.47
2023-03-25T11:27:18.245Z,99645.69
2023-03-25T11:30:05.394Z,99665.59
2023-03-25T11:32:58.034Z,99659.34
2023-03-25T11:35:48.956Z,99649.25
2023-03-25T11:38:36.433Z,99641.09
2023-03-25T11:41:22.158Z,99658.72
2023-03-25T11:44:08.052Z,99663.94
2023-03-25T11:46:55.541Z,99662.91
2023-03-25T11:49:42.043Z,99669.19
2023-03-25T11:52:30.564Z,99665.69
2023-03-25T11:55:17.549Z,99658.44
2023-03-25T11:58:04.336Z,99670.94
2023-03-25T12:00:50.671Z,99672.22
2023-03-25T12:03:38.544Z,99667.34
2023-03-25T12:06:24.403Z,99657.72
2023-03-25T12:09:12.959Z,99654.78
2023-03-25T12:12:03.278Z,99652.03
2023-03-25T12:14:50.961Z,99648.44
2023-03-25T12:17:40.548Z,99643.41
2023-03-25T12:20:27.576Z,99655.50
2023-03-25T12:23:16.059Z,99650.75
2023-03-25T12:26:04.850Z,99652.94
2023-03-25T12:28:56.378Z,99649.03
2023-03-25T12:31:46.343Z,99648.25
2023-03-25T12:34:37.267Z,99640.34
2023-03-25T12:37:28.316Z,99642.25
2023-03-25T12:40:35.040Z,99640.47
2023-03-25T12:43:22.731Z,99639.66
2023-03-25T12:46:10.327Z,99625.28
2023-03-25T12:48:59.860Z,99611.41
2023-03-25T12:51:48.795Z,99627.16
2023-03-25T12:54:38.322Z,99615.19
2023-03-25T12:57:27.806Z,99607.44
2023-03-25T13:00:21.866Z,99612.78
2023-03-25T13:03:14.464Z,99597.59
2023-03-25T13:06:00.605Z,99596.75
2023-03-25T13:08:48.060Z,99599.81
2023-03-25T13:11:34.605Z,99598.56
2023-03-25T13:14:22.190Z,99611.63
2023-03-25T13:17:12.295Z,99643.41
2023-03-25T13:20:00.857Z,99636.53
2023-03-25T13:22:47.494Z,99632.22
2023-03-25T13:25:36.553Z,99652.72
2023-03-25T13:28:23.119Z,99646.94
2023-03-25T13:31:11.675Z,99644.03
2023-03-25T13:34:02.492Z,99653.91
2023-03-25T13:36:50.509Z,99647.13
2023-03-25T13:39:42.871Z,99670.25
2023-03-25T13:42:29.054Z,99665.88
2023-03-25T13:45:15.849Z,99671.53
2023-03-25T13:48:03.599Z,99692.06
2023-03-25T13:50:51.466Z,99696.03
2023-03-25T13:53:38.595Z,99690.59
2023-03-25T13:56:35.637Z,99690.69
2023-03-25T13:59:31.056Z,99691.34
2023-03-25T14:02:24.974Z,99704.69
2023-03-25T14:05:19.124Z,99706.91
2023-03-25T14:08:12.211Z,99731.66
2023-03-25T14:11:00.218Z,99747.13
2023-03-25T14:13:47.127Z,99771.91
2023-03-25T14:16:33.831Z,99780.06
2023-03-25T14:19:21.667Z,99798.34
2023-03-25T14:22:08.207Z,99796.84
2023-03-25T14:24:55.323Z,99812.34
2023-03-25T14:27:41.144Z,99820.63
2023-03-25T14:30:28.128Z,99826.78
2023-03-25T14:33:14.570Z,99840.22
2023-03-25T14:36:00.312Z,99832.75
2023-03-25T14:38:53.672Z,99839.00
2023-03-25T14:42:00.426Z,99844.31
2023-03-25T14:44:49.470Z,99851.47
2023-03-25T14:47:35.678Z,99834.19
2023-03-25T14:50:31.224Z,99830.41
2023-03-25T14:53:17.073Z,99834.72
2023-03-25T14:56:03.209Z,99829.56
2023-03-25T14:58:52.740Z,99830.44
2023-03-25T15:01:40.230Z,99833.44
2023-03-25T15:04:28.780Z,99847.72
2023-03-25T15:07:17.350Z,99862.28
2023-03-25T15:10:03.730Z,99860.97
2023-03-25T15:12:51.119Z,99867.28
2023-03-25T15:15:52.211Z,99878.53
2023-03-25T15:18:56.852Z,99889.47
2023-03-25T15:21:57.805Z,99901.22
2023-03-25T15:24:48.834Z,99888.63
2023-03-25T15:27:39.486Z,99884.81
2023-03-25T15:30:30.219Z,99868.56
2023-03-25T15:33:19.904Z,99860.59
2023-03-25T15:36:09.266Z,99862.44
2023-03-25T15:38:58.659Z,99843.69
2023-03-25T15:41:51.567Z,99840.72
2023-03-25T15:44:58.429Z,99849.97
2023-03-25T15:47:47.852Z,99861.72
2023-03-25T15:50:39.180Z,99866.69
2023-03-25T15:53:44.461Z,99875.16
2023-03-25T15:56:30.992Z,99891.38
2023-03-25T15:59:22.474Z,99901.97
2023-03-25T16:02:13.324Z,99901.94
2023-03-25T16:04:59.113Z,99898.63
2023-03-25T16:07:45.898Z,99910.97
2023-03-25T16:10:35.960Z,99890.44
2023-03-25T16:13:24.356Z,99890.25
2023-03-25T16:16:11.808Z,99899.19
2023-03-25T16:18:57.529Z,99901.63
2023-03-25T16:21:43.399Z,99896.31
2023-03-25T16:24:29.929Z,99906.72
2023-03-25T16:27:20.119Z,99921.28
2023-03-25T16:30:08.941Z,99921.94
2023-03-25T16:32:57.935Z,99937.66
2023-03-25T16:35:44.974Z,99944.78
2023-03-25T16:38:31.003Z,99952.72
2023-03-25T16:41:16.942Z,99955.72
2023-03-25T16:44:03.234Z,99961.69
2023-03-25T16:46:49.100Z,99971.00
2023-03-25T16:49:37.621Z,99973.50
2023-03-25T16:52:24.999Z,99963.06
2023-03-25T16:55:29.606Z,99963.88
2023-03-25T16:58:19.456Z,99968.03
2023-03-25T17:01:08.838Z,99968.63
2023-03-25T17:03:55.771Z,99968.53
2023-03-25T17:06:43.249Z,99948.13
2023-03-25T17:09:34.130Z,99934.06
2023-03-25T17:12:20.844Z,99924.00
2023-03-25T17:15:09.151Z,99925.97
2023-03-25T17:18:00.009Z,99908.72
2023-03-25T17:20:46.596Z,99913.69
2023-03-25T17:23:37.533Z,99910.09
2023-03-25T17:26:24.336Z,99898.63
2023-03-25T17:29:12.151Z,99882.63
2023-03-25T17:31:59.098Z,99879.16
2023-03-25T17:34:46.327Z,99876.34
2023-03-25T17:37:32.113Z,99857.13
2023-03-25T17:40:25.230Z,99849.84
2023-03-25T17:43:16.393Z,99847.38
2023-03-25T17:46:02.303Z,99876.13
2023-03-25T17:48:48.470Z,99904.91
2023-03-25T17:51:34.230Z,99954.31
2023-03-25T17:54:20.074Z,99911.28
2023-03-25T17:57:07.556Z,99906.91
2023-03-25T17:59:55.607Z,99891.97
2023-03-25T18:02:41.648Z,99891.44
2023-03-25T18:05:27.735Z,99915.06
2023-03-25T18:08:14.217Z,99927.47
2023-03-25T18:11:00.183Z,99941.28
2023-03-25T18:13:48.514Z,99940.78
2023-03-25T18:16:34.373Z,99952.34
2023-03-25T18:19:21.610Z,99959.56
2023-03-25T18:22:19.332Z,99967.41
2023-03-25T18:25:06.549Z,99973.50
2023-03-25T18:27:53.256Z,99976.47
2023-03-25T18:30:42.552Z,99978.59
2023-03-25T18:33:28.573Z,99990.72
2023-03-25T18:36:14.817Z,99996.31
2023-03-25T18:39:00.664Z,99991.88
2023-03-25T18:41:46.841Z,99994.81
2023-03-25T18:44:32.587Z,100002.59
2023-03-25T18:47:19.773Z,100009.03
2023-03-25T18:50:11.581Z,100023.59
2023-03-25T18:52:58.665Z,100036.97
2023-03-25T18:55:45.879Z,100048.22
2023-03-25T18:58:32.812Z,100045.59
2023-03-25T19:01:20.534Z,100057.44
2023-03-25T19:04:09.162Z,100066.22
2023-03-25T19:06:55.695Z,100058.81
2023-03-25T19:09:42.094Z,100067.88
2023-03-25T19:12:28.191Z,100076.94
2023-03-25T19:15:15.225Z,100076.63
2023-03-25T19:18:01.704Z,100076.94
2023-03-25T19:20:49.504Z,100071.66
2023-03-25T19:23:36.361Z,100072.63
2023-03-25T19:26:22.212Z,100085.84
2023-03-25T19:29:08.529Z,100070.28
2023-03-25T19:31:54.291Z,100059.31
2023-03-25T19:34:39.977Z,100067.22
2023-03-25T19:37:30.877Z,100068.50
2023-03-25T19:40:18.766Z,100066.03
2023-03-25T19:43:06.328Z,100062.75
2023-03-25T19:45:55.719Z,100063.19
2023-03-25T19:48:41.980Z,100064.16
2023-03-25T19:51:28.186Z,100054.03
2023-03-25T19:54:15.548Z,100061.72
2023-03-25T19:57:01.439Z,100060.16
2023-03-25T19:59:48.085Z,100061.44
2023-03-25T20:02:34.004Z,100063.25
2023-03-25T20:05:20.237Z,100075.94
2023-03-25T20:08:06.490Z,100075.78
2023-03-25T20:10:54.024Z,100083.56
2023-03-25T20:13:40.327Z,100089.53
2023-03-25T20:16:27.831Z,100090.22
2023-03-25T20:19:13.866Z,100102.88
2023-03-25T20:21:59.838Z,100100.06
2023-03-25T20:24:46.338Z,100109.66
2023-03-25T20:27:33.682Z,100116.19
2023-03-25T20:30:20.231Z,100117.84
2023-03-25T20:33:05.966Z,100118.38
2023-03-25T20:35:51.845Z,100112.25
2023-03-25T20:38:41.982Z,100119.91
2023-03-25T20:41:33.644Z,100118.78
2023-03-25T20:44:21.802Z,100119.47
2023-03-25T20:47:09.281Z,100111.53
2023-03-25T20:49:55.386Z,100106.13
2023-03-25T20:52:41.502Z,100101.81
2023-03-25T20:55:27.439Z,100101.50
2023-03-25T20:58:13.498Z,100102.19
2023-03-25T21:01:00.623Z,100100.16
2023-03-25T21:03:46.773Z,100095.84
2023-03-25T21:06:32.858Z,100085.84
2023-03-25T21:09:18.950Z,100082.66
2023-03-25T21:12:05.288Z,100073.22
2023-03-25T21:14:51.490Z,100077.13
2023-03-25T21:17:38.554Z,100075.31
2023-03-25T21:20:26.986Z,100084.53
2023-03-25T21:23:12.966Z,100087.16
2023-03-25T21:25:59.858Z,100088.13
2023-03-25T21:28:45.525Z,100092.16
2023-03-25T21:31:31.726Z,100095.63
2023-03-25T21:34:19.220Z,100106.50
2023-03-25T21:37:05.438Z,100111.63
2023-03-25T21:39:57.208Z,100116.06
2023-03-25T21:42:45.578Z,100114.13
2023-03-25T21:45:33.830Z,100115.78
2023-03-25T21:48:20.152Z,100115.78
2023-03-25T21:51:11.809Z,100125.09
2023-03-25T21:53:58.339Z,100129.69
2023-03-25T21:56:44.353Z,100138.59
2023-03-25T21:59:30.564Z,100148.47
2023-03-25T22:02:16.991Z,100158.06
2023-03-25T22:05:03.129Z,100160.84
2023-03-25T22:07:50.486Z,100174.22
2023-03-25T22:10:36.782Z,100182.81
2023-03-25T22:13:22.766Z,100196.47
2023-03-25T22:16:08.948Z,100196.31
2023-03-25T22:18:55.033Z,100210.22
2023-03-25T22:21:41.115Z,100231.78
2023-03-25T22:24:30.498Z,100213.41
2023-03-25T22:27:17.180Z,100230.00
2023-03-25T22:30:02.904Z,100236.25
2023-03-25T22:32:48.692Z,100243.44
2023-03-25T22:35:34.671Z,100250.41
2023-03-25T22:38:21.616Z,100266.25
2023-03-25T22:41:09.110Z,100271.69
2023-03-25T22:43:55.711Z,100277.13
2023-03-25T22:46:41.490Z,100277.13
2023-03-25T22:49:27.841Z,100301.16
2023-03-25T22:52:13.582Z,100305.75
2023-03-25T22:54:59.884Z,100312.44
2023-03-25T22:57:47.442Z,100317.72
2023-03-25T23:00:33.278Z,100324.13
2023-03-25T23:03:19.225Z,100331.06
2023-03-25T23:06:06.378Z,100347.75
2023-03-25T23:08:52.504Z,100346.78
2023-03-25T23:11:38.641Z,100354.56
2023-03-25T23:14:26.462Z,100361.66
2023-03-25T23:17:12.593Z,100362.63
2023-03-25T23:19:58.634Z,100363.31
2023-03-25T23:22:44.457Z,100365.97
2023-03-25T23:25:31.249Z,100373.66
2023-03-25T23:28:18.101Z,100370.03
2023-03-25T23:31:08.989Z,100375.56
2023-03-25T23:33:55.884Z,100386.13
2023-03-25T23:36:41.849Z,100390.19
2023-03-25T23:39:27.837Z,100386.84
2023-03-25T23:42:13.899Z,100393.66
2023-03-25T23:45:00.105Z,100399.66
2023-03-25T23:47:49.110Z,100397.00
2023-03-25T23:50:35.311Z,100401.03
2023-03-25T23:53:21.449Z,100400.19
2023-03-25T23:56:08.260Z,100407.28
2023-03-25T23:58:54.106Z,100404.78
